Terminal Aerodrome Forecast
Issued by NWS Charleston, WV

Current Version | Previous Version | Graphics & Text | Print | Product List | Glossary On
Versions: 1 2 3 4 5 6 7 8 9 10 11 12 13 14 15 16 17 18 19 20 21 22
000
FTUS41 KRLX 290712 AAA
TAFPKB
TAF AMD
KPKB 290712Z 2907/3006 00000KT 1/4SM FG BKN001
      TEMPO 2907/2909 5SM BR SCT002 BKN200
     FM290900 00000KT 5SM BR SCT003 BKN150
     FM291100 00000KT P6SM BKN150
     FM291600 19006KT P6SM BKN080
     FM300200 21006KT P6SM VCTS BKN040CB
     FM300300 21006KT 4SM SHRA BR VCTS OVC035CB
     FM300500 21006KT 6SM SHRA BR VCTS BKN040CB=

USA.gov is the U.S. government's official web portal to all federal, state and local government web resources and services.